Time;durP1;ratioP1;P1;durP2;ratioP2;P2;SDS_P1;SDS_P2;PMS_P1;PMS_P2;Temp;Humidity;BMP_temperature;BMP_pressure;BME280_temperature;BME280_humidity;BME280_pressure;Samples;Min_cycle;Max_cycle;Signal;HPM_P1;HPM_P2
2022/03/03 00:02:06;;;;;;;26.73;14.87;;;-3.60;99.90;-4.10;101131.00;;;;4971787;28;90671;-64
2022/03/03 00:04:32;;;;;;;20.77;14.17;;;-3.60;99.90;-4.20;101135.00;;;;4973337;28;113005;-65
2022/03/03 00:06:57;;;;;;;19.13;13.00;;;-3.60;99.90;-4.30;101129.00;;;;4974286;28;87444;-66
2022/03/03 00:09:23;;;;;;;23.90;13.23;;;-3.70;99.90;-4.40;101122.00;;;;4973468;28;94598;-67
2022/03/03 00:11:49;;;;;;;22.77;15.40;;;-3.80;99.90;-4.40;101119.00;;;;4955177;28;116744;-66
2022/03/03 00:14:15;;;;;;;22.70;13.97;;;-4.30;99.90;-4.50;101115.00;;;;4972199;28;113315;-66
2022/03/03 00:16:41;;;;;;;17.37;12.17;;;-3.90;99.90;-4.50;101113.00;;;;4975582;28;86967;-65
2022/03/03 00:19:06;;;;;;;25.60;14.07;;;-4.00;99.90;-4.50;101101.00;;;;4975454;28;87708;-65
2022/03/03 00:21:32;;;;;;;17.93;11.97;;;-4.00;99.90;-4.60;101089.00;;;;4971907;28;117227;-65
2022/03/03 00:23:58;;;;;;;19.83;12.60;;;-4.10;99.90;-4.70;101081.00;;;;4976573;28;106186;-65
2022/03/03 00:26:24;;;;;;;18.13;11.13;;;-3.60;99.90;-4.70;101088.00;;;;4975411;28;87843;-65
2022/03/03 00:28:49;;;;;;;20.70;11.73;;;-4.10;99.90;-4.70;101075.00;;;;4978203;28;88946;-65
2022/03/03 00:31:15;;;;;;;19.50;12.87;;;-4.20;99.90;-4.70;101077.00;;;;4977676;28;116937;-65
2022/03/03 00:33:41;;;;;;;18.37;10.97;;;-4.20;99.90;-4.70;101070.00;;;;4979656;28;87927;-65
2022/03/03 00:36:07;;;;;;;15.77;12.23;;;-4.20;99.90;-4.70;101067.00;;;;4978366;28;96387;-65
2022/03/03 00:38:33;;;;;;;25.53;11.73;;;-4.20;99.90;-4.80;101070.00;;;;4977310;28;88758;-65
2022/03/03 00:40:58;;;;;;;21.03;12.07;;;-4.30;99.90;-4.80;101070.00;;;;4978633;28;116669;-65
2022/03/03 00:43:24;;;;;;;15.37;11.00;;;-4.30;99.90;-4.80;101083.00;;;;4977079;28;112718;-66
2022/03/03 00:45:50;;;;;;;17.13;11.50;;;-4.30;99.90;-4.80;101072.00;;;;4977685;28;87619;-64
2022/03/03 00:48:16;;;;;;;19.83;11.10;;;-4.20;99.90;-4.80;101065.00;;;;4974768;28;120152;-66
2022/03/03 00:50:41;;;;;;;13.67;9.13;;;-4.30;99.90;-4.80;101067.00;;;;4974631;28;118248;-65
2022/03/03 00:53:07;;;;;;;17.87;10.63;;;-4.20;99.90;-4.80;101071.00;;;;4979657;28;87854;-64
2022/03/03 00:55:33;;;;;;;18.00;10.20;;;-4.20;99.90;-4.90;101077.00;;;;4977726;28;108819;-65
2022/03/03 00:57:59;;;;;;;19.53;10.30;;;-4.30;99.90;-4.90;101074.00;;;;4982441;28;90272;-65
2022/03/03 01:00:24;;;;;;;13.40;10.37;;;-4.20;99.90;-4.90;101069.00;;;;4979379;28;115666;-65
2022/03/03 01:02:51;;;;;;;17.13;10.10;;;-4.40;99.90;-4.90;101077.00;;;;4974854;28;113252;-65
2022/03/03 01:05:17;;;;;;;21.83;11.33;;;-4.40;99.90;-4.90;101073.00;;;;4978593;28;109474;-65
2022/03/03 01:07:43;;;;;;;15.37;10.13;;;-4.40;99.90;-4.80;101067.00;;;;4978698;28;87724;-65
2022/03/03 01:10:10;;;;;;;16.93;11.03;;;-4.40;99.90;-4.80;101065.00;;;;4977182;28;88144;-65
2022/03/03 01:12:37;;;;;;;15.20;10.70;;;-4.30;99.90;-4.80;101062.00;;;;4976047;28;88635;-65
2022/03/03 01:15:06;;;;;;;20.60;12.83;;;-4.30;99.90;-4.90;101066.00;;;;4975895;28;87925;-66
2022/03/03 01:17:32;;;;;;;19.57;12.60;;;-4.40;99.90;-4.90;101061.00;;;;4975981;28;104328;-65
2022/03/03 01:19:58;;;;;;;21.33;13.17;;;-4.40;99.90;-5.00;101074.00;;;;4976065;28;106810;-65
2022/03/03 01:22:25;;;;;;;20.77;11.80;;;-4.40;99.90;-5.10;101075.00;;;;4976461;28;87925;-65
2022/03/03 01:24:50;;;;;;;19.20;11.90;;;-4.40;99.90;-5.10;101073.00;;;;4976529;28;90006;-66
2022/03/03 01:27:16;;;;;;;18.27;12.47;;;-4.50;99.90;-5.10;101076.00;;;;4976367;28;88071;-66
2022/03/03 01:29:42;;;;;;;22.00;12.17;;;-4.50;99.90;-5.10;101076.00;;;;4973801;28;116010;-67
2022/03/03 01:32:08;;;;;;;21.17;11.27;;;-4.60;99.90;-5.00;101065.00;;;;4973607;28;110647;-66
2022/03/03 01:34:35;;;;;;;21.67;12.50;;;-4.50;99.90;-5.00;101063.00;;;;4975540;28;95331;-67
2022/03/03 01:37:02;;;;;;;18.17;11.53;;;-4.50;99.90;-5.00;101077.00;;;;4973928;28;89138;-66
2022/03/03 01:39:27;;;;;;;18.63;9.97;;;-4.50;99.90;-5.00;101067.00;;;;4975096;28;102991;-66
2022/03/03 01:41:53;;;;;;;19.13;11.90;;;-4.40;99.90;-5.00;101069.00;;;;4975306;28;113108;-66
2022/03/03 01:44:19;;;;;;;18.77;10.53;;;-4.30;99.90;-5.00;101061.00;;;;4975885;28;93744;-66
2022/03/03 01:47:03;;;;;;;20.17;11.27;;;-4.40;99.90;-5.00;101058.00;;;;4974692;28;109551;-66
2022/03/03 01:49:29;;;;;;;17.83;11.67;;;-4.40;99.90;-5.00;101066.00;;;;4975198;28;104913;-66
2022/03/03 01:51:54;;;;;;;16.83;9.80;;;-4.50;99.90;-5.00;101069.00;;;;4973782;28;97365;-66
2022/03/03 01:54:20;;;;;;;13.87;9.50;;;-4.50;99.90;-5.00;101074.00;;;;4976633;28;94655;-67
2022/03/03 01:56:47;;;;;;;21.63;10.47;;;-4.40;99.90;-4.90;101073.00;;;;4975832;28;117124;-66
2022/03/03 01:59:14;;;;;;;16.23;9.83;;;-4.30;99.90;-4.80;101074.00;;;;4974478;28;118337;-66
2022/03/03 02:01:41;;;;;;;20.80;9.53;;;-4.30;99.90;-4.80;101074.00;;;;4976125;28;88784;-66
2022/03/03 02:04:09;;;;;;;11.90;9.67;;;-4.30;99.90;-4.70;101063.00;;;;4975544;28;87632;-66
2022/03/03 02:06:37;;;;;;;17.63;10.83;;;-4.20;99.90;-4.70;101053.00;;;;4975438;28;114485;-66
2022/03/03 02:09:03;;;;;;;14.40;8.73;;;-4.10;99.90;-4.70;101061.00;;;;4975080;28;88762;-66
2022/03/03 02:11:31;;;;;;;11.67;9.33;;;-4.20;99.90;-4.70;101052.00;;;;4976094;28;88028;-66
2022/03/03 02:13:57;;;;;;;11.17;8.50;;;-4.20;99.90;-4.70;101056.00;;;;4976791;28;87708;-66
2022/03/03 02:16:24;;;;;;;16.27;9.60;;;-4.20;99.90;-4.80;101042.00;;;;4975579;28;100530;-66
2022/03/03 02:18:50;;;;;;;17.07;9.73;;;-4.20;99.90;-4.80;101054.00;;;;4976331;28;88555;-66
2022/03/03 02:21:16;;;;;;;15.77;9.23;;;-4.30;99.90;-4.80;101055.00;;;;4976488;28;88030;-66
2022/03/03 02:23:42;;;;;;;15.90;9.63;;;-4.30;99.90;-4.80;101047.00;;;;4974044;28;88018;-66
2022/03/03 02:26:16;;;;;;;18.13;9.60;;;-4.30;99.90;-4.80;101049.00;;;;4973730;28;89567;-66
2022/03/03 02:28:42;;;;;;;13.00;8.87;;;-4.30;99.90;-4.80;101036.00;;;;4973410;28;98361;-66
2022/03/03 02:31:08;;;;;;;17.30;9.13;;;-4.40;99.90;-4.90;101044.00;;;;4975620;28;96449;-66
2022/03/03 02:33:34;;;;;;;14.83;7.73;;;-4.30;99.90;-4.80;101037.00;;;;4976000;28;87729;-67
2022/03/03 02:36:21;;;;;;;14.97;8.40;;;-4.30;99.90;-4.90;101042.00;;;;4975143;28;117992;-67
2022/03/03 02:38:50;;;;;;;14.83;8.03;;;-4.30;99.90;-4.90;101036.00;;;;4975474;28;87811;-66
2022/03/03 02:41:16;;;;;;;15.97;9.10;;;-4.30;99.90;-4.80;101030.00;;;;4973288;28;102011;-66
2022/03/03 02:43:42;;;;;;;18.70;10.13;;;-4.40;99.90;-4.80;101018.00;;;;4976673;28;87004;-66
2022/03/03 02:46:09;;;;;;;15.37;8.03;;;-4.40;99.90;-4.80;101019.00;;;;4974931;28;88062;-66
2022/03/03 02:48:35;;;;;;;14.17;8.97;;;-4.30;99.90;-4.80;101013.00;;;;4957454;28;89900;-66
2022/03/03 02:51:01;;;;;;;9.03;7.57;;;-4.30;99.90;-4.80;101025.00;;;;4975367;28;88689;-66
2022/03/03 02:53:27;;;;;;;16.43;8.57;;;-4.20;99.90;-4.80;101004.00;;;;4975298;28;87711;-66
2022/03/03 02:55:53;;;;;;;12.17;7.43;;;-4.20;99.90;-4.90;101015.00;;;;4976183;28;87975;-67
2022/03/03 02:58:19;;;;;;;17.10;8.73;;;-4.30;99.90;-4.90;101013.00;;;;4975255;28;108999;-66
2022/03/03 03:00:47;;;;;;;13.93;9.50;;;-4.30;99.90;-5.00;100997.00;;;;4974223;28;110290;-66
2022/03/03 03:03:14;;;;;;;18.53;8.40;;;-4.40;99.90;-5.10;100996.00;;;;4975692;28;87781;-66
2022/03/03 03:05:41;;;;;;;14.57;7.73;;;-4.60;99.90;-5.20;100995.00;;;;4973139;28;87947;-66
2022/03/03 03:08:07;;;;;;;13.77;8.73;;;-4.60;99.90;-5.20;100993.00;;;;4975328;28;87117;-66
2022/03/03 03:10:34;;;;;;;8.40;5.97;;;-4.60;99.90;-5.30;100996.00;;;;4975952;28;88040;-66
2022/03/03 03:12:59;;;;;;;13.63;8.13;;;-4.70;99.90;-5.30;100996.00;;;;4975247;28;87740;-67
2022/03/03 03:15:25;;;;;;;12.80;8.60;;;-3.70;99.90;-5.30;100990.00;;;;4973092;28;88630;-67
2022/03/03 03:17:51;;;;;;;14.03;8.77;;;-4.80;99.90;-5.40;100983.00;;;;4975965;28;117097;-67
2022/03/03 03:20:18;;;;;;;12.10;7.90;;;-4.60;99.90;-5.50;100975.00;;;;4976179;28;87949;-67
2022/03/03 03:22:44;;;;;;;13.77;7.67;;;-4.90;99.90;-5.50;100993.00;;;;4975112;28;87811;-67
2022/03/03 03:25:12;;;;;;;12.90;7.73;;;-5.00;99.90;-5.50;100984.00;;;;4974697;28;118021;-67
2022/03/03 03:27:41;;;;;;;15.60;8.63;;;-5.00;99.90;-5.50;100988.00;;;;4975265;28;102859;-67
2022/03/03 03:30:11;;;;;;;14.07;8.23;;;-4.90;99.90;-5.50;100980.00;;;;4978251;28;87661;-67
2022/03/03 03:32:38;;;;;;;13.27;8.07;;;-5.00;99.90;-5.60;100979.00;;;;4978025;28;95964;-67
2022/03/03 03:35:04;;;;;;;11.80;7.37;;;-5.00;99.90;-5.50;100981.00;;;;4975819;28;88660;-66
2022/03/03 03:37:31;;;;;;;12.57;8.10;;;-5.10;99.90;-5.50;100969.00;;;;4973744;28;87746;-67
2022/03/03 03:39:57;;;;;;;13.83;7.93;;;-4.90;99.90;-5.50;100968.00;;;;4972075;28;90516;-67
2022/03/03 03:42:24;;;;;;;15.07;9.47;;;-4.90;99.90;-5.50;100974.00;;;;4975257;28;88023;-67
2022/03/03 03:44:49;;;;;;;16.50;9.77;;;-4.10;99.90;-5.60;100961.00;;;;4975273;28;87842;-67
2022/03/03 03:47:15;;;;;;;13.80;8.37;;;-5.00;99.90;-5.60;100971.00;;;;4975087;28;94366;-67
2022/03/03 03:49:41;;;;;;;15.50;8.60;;;-5.00;99.90;-5.60;100986.00;;;;4975058;28;87848;-67
2022/03/03 03:52:07;;;;;;;12.90;7.57;;;-5.10;99.90;-5.60;100973.00;;;;4974119;28;109147;-67
2022/03/03 03:54:32;;;;;;;16.50;8.57;;;-5.10;99.90;-5.60;100967.00;;;;4974419;28;107676;-67
2022/03/03 03:56:58;;;;;;;13.97;8.77;;;-5.10;99.90;-5.70;100980.00;;;;4974612;28;117863;-67
2022/03/03 03:59:24;;;;;;;14.63;8.57;;;-5.00;99.90;-5.70;100975.00;;;;4973642;28;110024;-68
2022/03/03 04:01:50;;;;;;;12.13;8.23;;;-5.20;99.90;-5.70;100985.00;;;;4974235;28;108888;-67
2022/03/03 04:04:16;;;;;;;20.07;9.57;;;-5.10;99.90;-5.70;100972.00;;;;4976315;28;93065;-67
2022/03/03 04:06:42;;;;;;;17.83;9.10;;;-5.10;99.90;-5.70;100978.00;;;;4977696;28;88495;-67
2022/03/03 04:09:07;;;;;;;14.87;7.80;;;-5.10;99.90;-5.80;100971.00;;;;4978192;28;95816;-67
2022/03/03 04:11:33;;;;;;;14.43;9.67;;;-5.20;99.90;-5.70;100967.00;;;;4977090;28;108330;-67
2022/03/03 04:13:59;;;;;;;20.57;9.97;;;-5.20;99.90;-5.70;100972.00;;;;4978835;28;88252;-67
2022/03/03 04:16:25;;;;;;;20.90;10.17;;;-5.20;99.90;-5.80;100961.00;;;;4975834;28;116418;-67
2022/03/03 04:18:51;;;;;;;13.53;9.57;;;-5.20;99.90;-5.80;100953.00;;;;4978723;28;87942;-67
2022/03/03 04:21:16;;;;;;;15.27;10.10;;;-5.20;99.90;-5.80;100964.00;;;;4977923;28;92005;-68
2022/03/03 04:23:42;;;;;;;13.00;10.10;;;-5.10;99.90;-5.80;100965.00;;;;4975517;28;117510;-68
2022/03/03 04:26:09;;;;;;;16.53;10.50;;;-5.20;99.90;-5.70;100966.00;;;;4977950;28;88278;-67
2022/03/03 04:28:35;;;;;;;15.43;9.43;;;-5.20;99.90;-5.60;100965.00;;;;4982858;28;88575;-67
2022/03/03 04:31:01;;;;;;;15.43;10.20;;;-5.10;99.90;-5.50;100957.00;;;;4962108;28;95388;-67
2022/03/03 04:33:27;;;;;;;14.60;9.43;;;-5.00;99.90;-5.40;100947.00;;;;4976963;28;97138;-67
2022/03/03 04:35:53;;;;;;;13.97;8.93;;;-5.00;99.90;-5.30;100941.00;;;;4976830;28;117686;-67
2022/03/03 04:38:18;;;;;;;13.73;9.10;;;-4.70;99.90;-5.20;100945.00;;;;4978408;28;87870;-67
2022/03/03 04:40:45;;;;;;;14.13;9.27;;;-4.80;99.90;-5.10;100949.00;;;;4977980;28;87836;-67
2022/03/03 04:43:10;;;;;;;15.77;9.50;;;-4.50;99.90;-5.00;100938.00;;;;4975487;28;90393;-68
2022/03/03 04:45:36;;;;;;;11.03;7.90;;;-4.60;99.90;-4.90;100939.00;;;;4975530;28;88655;-67
2022/03/03 04:48:02;;;;;;;13.67;9.77;;;-4.50;99.90;-4.80;100942.00;;;;4976836;28;109999;-67
2022/03/03 04:50:30;;;;;;;11.70;8.73;;;-4.40;99.90;-4.70;100938.00;;;;4975708;28;88042;-68
2022/03/03 04:52:56;;;;;;;13.53;7.97;;;-4.30;99.90;-4.60;100926.00;;;;4977326;28;89776;-67
2022/03/03 04:55:22;;;;;;;17.50;9.23;;;-4.20;99.90;-4.50;100949.00;;;;4976738;28;102997;-67
2022/03/03 04:57:48;;;;;;;11.30;8.13;;;-4.10;99.90;-4.40;100937.00;;;;4978152;28;95215;-67
2022/03/03 05:00:14;;;;;;;9.43;6.50;;;-4.00;99.90;-4.40;100926.00;;;;4977607;28;98261;-67
2022/03/03 05:02:40;;;;;;;13.03;6.93;;;-3.90;99.90;-4.40;100915.00;;;;4976693;28;104779;-68
2022/03/03 05:05:06;;;;;;;13.37;8.40;;;-3.80;99.90;-4.40;100909.00;;;;4976474;28;107475;-67
2022/03/03 05:07:32;;;;;;;8.93;7.83;;;-3.80;99.90;-4.40;100926.00;;;;4977815;28;88321;-68
2022/03/03 05:09:58;;;;;;;13.27;7.70;;;-3.90;99.90;-4.40;100922.00;;;;4959280;28;87049;-67
2022/03/03 05:12:23;;;;;;;16.27;7.93;;;-3.80;99.90;-4.50;100923.00;;;;4976436;28;114821;-67
2022/03/03 05:14:50;;;;;;;11.13;9.03;;;-3.90;99.90;-4.50;100922.00;;;;4975624;28;118006;-67
2022/03/03 05:17:15;;;;;;;17.07;8.57;;;-4.00;99.90;-4.60;100915.00;;;;4976467;28;88867;-67
2022/03/03 05:19:41;;;;;;;9.90;6.50;;;-4.00;99.90;-4.60;100923.00;;;;4977680;28;87757;-68
2022/03/03 05:22:07;;;;;;;11.93;7.93;;;-4.10;99.90;-4.70;100917.00;;;;4976711;28;88621;-67
2022/03/03 05:24:32;;;;;;;11.10;7.67;;;-4.20;99.90;-4.70;100923.00;;;;4976384;28;116718;-68
2022/03/03 05:26:58;;;;;;;16.33;8.50;;;-4.20;99.90;-4.80;100925.00;;;;4974584;28;100171;-67
2022/03/03 05:29:25;;;;;;;12.73;7.23;;;-4.30;99.90;-4.90;100920.00;;;;4975696;28;108774;-68
2022/03/03 05:31:51;;;;;;;12.90;7.77;;;-4.30;99.90;-4.90;100917.00;;;;4976726;28;89285;-68
2022/03/03 05:34:16;;;;;;;12.30;7.67;;;-4.40;99.90;-5.00;100916.00;;;;4976209;28;117819;-68
2022/03/03 05:36:42;;;;;;;9.97;7.73;;;-4.50;99.90;-5.00;100919.00;;;;4975846;28;110654;-68
2022/03/03 05:39:08;;;;;;;12.33;8.20;;;-4.40;99.90;-5.00;100907.00;;;;4977974;28;87828;-68
2022/03/03 05:41:34;;;;;;;15.20;8.83;;;-4.50;99.90;-5.10;100917.00;;;;4975446;28;89642;-68
2022/03/03 05:44:01;;;;;;;17.47;8.13;;;-4.80;99.90;-5.10;100906.00;;;;4976268;28;109744;-68
2022/03/03 05:46:27;;;;;;;10.30;7.63;;;-4.60;99.90;-5.20;100912.00;;;;4976296;28;91007;-68
2022/03/03 05:48:52;;;;;;;14.90;9.17;;;-4.60;99.90;-5.20;100911.00;;;;4977193;28;89830;-68
2022/03/03 05:51:19;;;;;;;11.17;7.83;;;-4.70;99.90;-5.20;100901.00;;;;4976342;28;88294;-68
2022/03/03 05:53:46;;;;;;;14.77;9.30;;;-4.50;99.90;-5.20;100908.00;;;;4976852;28;87965;-68
2022/03/03 05:56:15;;;;;;;12.97;9.03;;;-4.70;99.90;-5.20;100912.00;;;;4976044;28;89796;-68
2022/03/03 05:58:45;;;;;;;10.70;8.20;;;-4.70;99.90;-5.20;100920.00;;;;4975597;28;87320;-68
2022/03/03 06:01:13;;;;;;;12.40;8.23;;;-4.60;99.90;-5.10;100911.00;;;;4973758;28;88071;-68
2022/03/03 06:03:40;;;;;;;13.67;9.50;;;-4.60;99.90;-5.00;100910.00;;;;4976098;28;88851;-68
2022/03/03 06:06:16;;;;;;;13.23;9.70;;;-4.60;99.90;-5.00;100911.00;;;;4976923;28;88887;-68
2022/03/03 06:09:01;;;;;;;24.37;10.07;;;-4.50;99.90;-4.90;100930.00;;;;4975292;28;87988;-68
2022/03/03 06:11:27;;;;;;;28.43;11.13;;;-4.30;99.90;-4.80;100910.00;;;;4974750;28;103945;-68
2022/03/03 06:14:17;;;;;;;15.17;9.63;;;-4.30;99.90;-4.70;100921.00;;;;4974028;28;88781;-69
2022/03/03 06:16:45;;;;;;;20.87;9.47;;;-4.20;99.90;-4.60;100907.00;;;;4974055;28;87889;-68
2022/03/03 06:19:10;;;;;;;17.87;9.67;;;-4.20;99.90;-4.60;100922.00;;;;4976623;28;92938;-68
2022/03/03 06:21:36;;;;;;;13.10;8.40;;;-4.10;99.90;-4.50;100916.00;;;;4972511;28;116996;-68
2022/03/03 06:24:02;;;;;;;12.23;9.07;;;-4.00;99.90;-4.40;100918.00;;;;4975664;28;118187;-68
2022/03/03 06:26:28;;;;;;;13.33;7.97;;;-3.90;99.90;-4.20;100914.00;;;;4975752;28;88142;-68
2022/03/03 06:28:54;;;;;;;17.87;9.17;;;-3.70;99.90;-4.10;100927.00;;;;4976817;28;88006;-69
2022/03/03 06:31:20;;;;;;;8.53;7.63;;;-3.60;99.90;-4.00;100924.00;;;;4976100;28;89126;-68
2022/03/03 06:33:45;;;;;;;11.07;8.27;;;-3.50;99.90;-3.90;100930.00;;;;4977839;28;88641;-68
2022/03/03 06:36:11;;;;;;;8.13;6.27;;;-3.40;99.90;-3.80;100927.00;;;;4976333;28;94774;-68
2022/03/03 06:38:37;;;;;;;10.27;7.90;;;-3.40;99.90;-3.60;100927.00;;;;4976662;28;87754;-69
2022/03/03 06:41:05;;;;;;;9.10;7.53;;;-2.10;99.90;-3.50;100934.00;;;;4972500;28;117781;-69
2022/03/03 06:43:31;;;;;;;11.97;7.20;;;-3.10;99.90;-3.50;100934.00;;;;4957732;28;89512;-68
2022/03/03 06:45:57;;;;;;;14.40;7.30;;;-3.00;99.90;-3.40;100930.00;;;;4976855;28;87745;-68
2022/03/03 06:48:24;;;;;;;15.13;7.70;;;-3.00;99.90;-3.40;100926.00;;;;4976982;28;109194;-68
2022/03/03 06:50:53;;;;;;;13.33;8.00;;;-3.00;99.90;-3.30;100931.00;;;;4977331;28;90189;-68
2022/03/03 06:53:26;;;;;;;15.33;9.07;;;-1.90;99.90;-3.20;100926.00;;;;4974454;28;88089;-68
2022/03/03 06:56:03;;;;;;;13.90;8.60;;;-2.70;99.90;-3.00;100942.00;;;;4974179;28;88611;-68
2022/03/03 06:58:31;;;;;;;15.77;8.30;;;-2.40;99.90;-2.80;100921.00;;;;4957912;28;87810;-68
2022/03/03 07:00:57;;;;;;;15.57;9.17;;;-2.50;99.90;-2.70;100923.00;;;;4975323;28;87977;-68
2022/03/03 07:03:24;;;;;;;15.10;10.60;;;-2.30;99.90;-2.70;100919.00;;;;4975595;28;87708;-67
2022/03/03 07:05:51;;;;;;;15.00;9.90;;;-2.20;99.90;-2.60;100924.00;;;;4976221;28;87804;-68
2022/03/03 07:08:20;;;;;;;16.13;9.83;;;-2.20;99.90;-2.60;100914.00;;;;4974380;28;88219;-68
2022/03/03 07:10:47;;;;;;;16.80;9.40;;;-2.30;99.90;-2.60;100921.00;;;;4976612;28;88221;-67
2022/03/03 07:13:16;;;;;;;18.93;9.87;;;-2.20;99.90;-2.50;100923.00;;;;4976976;28;87420;-69
2022/03/03 07:15:51;;;;;;;13.50;8.60;;;-2.10;99.90;-2.20;100921.00;;;;4975831;28;87790;-68
2022/03/03 07:18:24;;;;;;;15.57;10.93;;;-1.80;99.90;-1.90;100914.00;;;;4957017;28;97638;-67
2022/03/03 07:21:03;;;;;;;22.57;11.50;;;-1.60;99.90;-1.60;100921.00;;;;4972484;28;88883;-67
2022/03/03 07:23:38;;;;;;;14.07;10.00;;;-1.30;99.90;-1.20;100919.00;;;;4974384;28;88711;-67
2022/03/03 07:26:10;;;;;;;17.93;12.20;;;-0.10;99.90;-0.90;100918.00;;;;4973511;28;87833;-68
2022/03/03 07:28:41;;;;;;;17.07;11.07;;;-0.70;99.90;-0.60;100922.00;;;;4975661;28;87891;-67
2022/03/03 07:31:08;;;;;;;15.73;10.80;;;-0.50;99.90;-0.30;100919.00;;;;4972716;28;87835;-67
2022/03/03 07:33:48;;;;;;;19.67;11.77;;;-0.10;99.90;0.00;100929.00;;;;4973567;28;88479;-67
2022/03/03 07:36:22;;;;;;;18.43;11.20;;;0.20;99.90;0.40;100935.00;;;;4975660;28;87996;-67
2022/03/03 07:39:11;;;;;;;17.50;10.23;;;0.60;99.90;0.80;100939.00;;;;4974851;28;90348;-67
2022/03/03 07:41:37;;;;;;;19.50;11.23;;;1.00;99.90;1.20;100946.00;;;;4974228;28;87630;-67
2022/03/03 07:44:03;;;;;;;17.73;12.53;;;1.10;99.90;1.60;100950.00;;;;4974755;28;96889;-67
2022/03/03 07:46:29;;;;;;;16.90;11.47;;;1.70;99.90;1.90;100949.00;;;;4974766;28;88717;-67
2022/03/03 07:48:55;;;;;;;16.83;10.33;;;2.00;99.90;2.30;100962.00;;;;4975555;28;99723;-68
2022/03/03 07:51:23;;;;;;;17.10;11.17;;;3.00;99.90;2.60;100969.00;;;;4974561;28;88115;-67
2022/03/03 07:53:49;;;;;;;19.40;11.53;;;2.80;99.90;3.00;100968.00;;;;4972751;28;88089;-67
2022/03/03 07:56:34;;;;;;;20.67;10.50;;;3.10;99.90;3.30;100964.00;;;;4971565;28;115803;-67
2022/03/03 07:59:11;;;;;;;18.10;10.27;;;3.50;99.90;3.70;100969.00;;;;4972025;28;95532;-66
2022/03/03 08:01:39;;;;;;;12.20;9.90;;;4.10;99.90;4.00;100977.00;;;;4973400;28;88550;-66
2022/03/03 08:04:05;;;;;;;13.40;9.50;;;4.20;99.90;4.30;100980.00;;;;4973366;28;88061;-66
2022/03/03 08:06:32;;;;;;;20.00;10.57;;;4.50;99.90;4.70;100976.00;;;;4974093;28;110493;-66
2022/03/03 08:09:01;;;;;;;17.27;10.90;;;4.70;99.90;5.00;100987.00;;;;4974669;28;87807;-66
2022/03/03 08:11:29;;;;;;;20.53;11.03;;;5.10;99.90;5.30;100975.00;;;;4972220;28;108169;-66
2022/03/03 08:13:56;;;;;;;16.30;10.77;;;5.40;99.90;5.60;100978.00;;;;4973507;28;118074;-65
2022/03/03 08:16:22;;;;;;;18.20;10.13;;;5.70;99.90;5.80;100982.00;;;;4973134;28;88217;-65
2022/03/03 08:18:48;;;;;;;17.03;10.87;;;5.90;98.70;6.00;100985.00;;;;4974423;28;87886;-65
2022/03/03 08:21:16;;;;;;;16.73;10.13;;;6.10;97.70;6.20;100978.00;;;;4973431;28;88739;-65
2022/03/03 08:23:43;;;;;;;21.50;9.73;;;6.30;96.40;6.50;100978.00;;;;4974335;28;88944;-66
2022/03/03 08:26:12;;;;;;;19.63;10.70;;;6.60;95.70;6.80;100984.00;;;;4976775;28;88227;-66
2022/03/03 08:28:40;;;;;;;20.33;10.57;;;6.90;93.90;7.10;100975.00;;;;4975942;28;86907;-66
2022/03/03 08:31:08;;;;;;;17.07;10.00;;;7.10;93.20;7.40;100973.00;;;;4974732;28;87698;-65
2022/03/03 08:34:09;;;;;;;13.07;7.83;;;7.40;92.40;7.70;100977.00;;;;4974639;28;87945;-65
2022/03/03 08:36:47;;;;;;;17.93;9.97;;;7.80;91.20;8.10;100990.00;;;;4972490;28;88837;-65
2022/03/03 08:39:19;;;;;;;16.53;8.57;;;8.10;89.50;8.40;100989.00;;;;4972866;28;87995;-65
2022/03/03 08:41:45;;;;;;;15.80;9.17;;;8.40;87.40;8.60;100988.00;;;;4974108;28;89378;-66
2022/03/03 08:44:12;;;;;;;14.93;9.03;;;8.60;81.90;8.70;100984.00;;;;4974104;28;107140;-64
2022/03/03 08:46:41;;;;;;;21.53;10.37;;;8.80;80.40;9.00;101001.00;;;;4974800;28;87679;-65
2022/03/03 08:49:10;;;;;;;14.77;9.53;;;9.00;79.10;9.30;100994.00;;;;4976051;28;87522;-65
2022/03/03 08:51:39;;;;;;;16.20;9.67;;;9.30;76.60;9.40;100987.00;;;;4976839;28;88099;-65
2022/03/03 08:54:05;;;;;;;14.63;8.50;;;9.40;74.80;9.50;100981.00;;;;4978284;28;88496;-65
2022/03/03 08:56:32;;;;;;;13.57;8.40;;;9.60;73.00;9.60;100982.00;;;;4975633;28;87848;-65
2022/03/03 08:58:58;;;;;;;15.13;7.93;;;9.70;71.70;9.70;100980.00;;;;4978368;28;87879;-65
2022/03/03 09:01:24;;;;;;;18.07;9.50;;;9.90;70.10;9.90;100992.00;;;;4976200;28;118330;-64
2022/03/03 09:03:49;;;;;;;14.90;8.33;;;10.00;69.50;10.00;100975.00;;;;4977588;28;107625;-64
2022/03/03 09:06:17;;;;;;;16.30;9.03;;;10.10;68.10;10.20;100960.00;;;;4975937;28;88258;-64
2022/03/03 09:08:43;;;;;;;18.10;9.17;;;10.20;66.70;10.20;100973.00;;;;4975893;28;93789;-64
2022/03/03 09:11:09;;;;;;;13.67;8.27;;;10.30;64.80;10.20;100962.00;;;;4976355;28;115372;-64
2022/03/03 09:13:35;;;;;;;12.67;8.20;;;10.40;63.60;10.30;100975.00;;;;4977814;28;88584;-64
2022/03/03 09:16:01;;;;;;;12.37;7.63;;;10.40;63.10;10.60;100972.00;;;;4975777;28;89367;-64
2022/03/03 09:18:27;;;;;;;12.37;8.17;;;10.60;62.30;10.80;100963.00;;;;4977245;28;93999;-64
2022/03/03 09:20:52;;;;;;;13.90;8.90;;;10.80;61.40;11.10;100967.00;;;;4976016;28;118476;-64
2022/03/03 09:23:19;;;;;;;11.77;7.60;;;11.20;60.80;11.40;100971.00;;;;4976879;28;108628;-64
2022/03/03 09:25:44;;;;;;;14.83;8.70;;;11.60;60.00;11.70;100980.00;;;;4977111;28;88776;-64
2022/03/03 09:28:10;;;;;;;14.73;7.80;;;11.10;58.70;11.90;100976.00;;;;4978292;28;92072;-64
2022/03/03 09:30:37;;;;;;;15.17;8.43;;;11.80;58.30;12.10;100978.00;;;;4980855;28;117586;-64
2022/03/03 09:33:05;;;;;;;16.00;7.77;;;12.10;57.60;12.20;100979.00;;;;4981375;28;88271;-64
2022/03/03 09:35:31;;;;;;;14.30;8.93;;;12.20;57.00;12.40;100963.00;;;;4978098;28;87681;-65
2022/03/03 09:37:58;;;;;;;11.57;8.67;;;12.30;56.40;12.50;100980.00;;;;4977080;28;98182;-64
2022/03/03 09:40:24;;;;;;;13.27;8.57;;;12.40;55.80;12.70;100969.00;;;;4977275;28;88933;-65
2022/03/03 09:43:03;;;;;;;13.00;7.67;;;12.60;55.10;12.80;100964.00;;;;4977213;28;117477;-64
2022/03/03 09:45:29;;;;;;;14.40;7.93;;;12.80;54.80;13.00;100968.00;;;;4977316;28;87925;-64
2022/03/03 09:47:56;;;;;;;15.63;9.17;;;12.90;54.30;13.10;100962.00;;;;4977599;28;88765;-65
2022/03/03 09:50:24;;;;;;;13.80;8.57;;;13.10;53.30;13.20;100956.00;;;;4976577;28;89349;-65
2022/03/03 09:52:50;;;;;;;13.33;8.50;;;13.10;52.60;13.10;100958.00;;;;4977324;28;88746;-64
2022/03/03 09:55:16;;;;;;;14.63;8.77;;;13.10;51.80;13.10;100943.00;;;;4977467;28;87438;-64
2022/03/03 09:57:42;;;;;;;12.30;8.67;;;13.00;50.50;13.00;100945.00;;;;4976379;28;109947;-65
2022/03/03 10:00:12;;;;;;;11.27;7.50;;;13.00;50.40;13.30;100948.00;;;;4975709;28;117833;-64
2022/03/03 10:02:59;;;;;;;10.03;6.00;;;13.10;51.00;13.50;100939.00;;;;4977139;28;88050;-64
2022/03/03 10:05:42;;;;;;;15.43;7.63;;;13.40;50.80;13.80;100948.00;;;;4976341;28;95928;-64
2022/03/03 10:08:11;;;;;;;14.17;7.90;;;13.60;49.50;13.90;100942.00;;;;4977216;28;87057;-64
2022/03/03 10:10:42;;;;;;;11.00;6.97;;;13.70;48.90;14.10;100933.00;;;;4974392;28;106803;-64
2022/03/03 10:13:09;;;;;;;11.63;7.67;;;13.80;48.60;14.20;100939.00;;;;4974667;28;88835;-65
2022/03/03 10:15:36;;;;;;;14.00;7.80;;;14.00;48.10;14.40;100950.00;;;;4974738;28;88448;-65
2022/03/03 10:18:10;;;;;;;9.70;6.10;;;14.10;48.10;14.60;100953.00;;;;4957193;28;88051;-65
2022/03/03 10:20:50;;;;;;;13.47;6.37;;;14.30;47.70;14.70;100941.00;;;;4955645;28;89110;-64
2022/03/03 10:23:19;;;;;;;13.83;7.80;;;14.50;47.20;14.80;100946.00;;;;4955965;28;88248;-64
2022/03/03 10:25:46;;;;;;;10.90;6.73;;;14.60;46.40;14.90;100953.00;;;;4955833;28;89610;-64
2022/03/03 10:28:19;;;;;;;13.73;7.20;;;14.70;46.40;15.30;100948.00;;;;4956285;28;87800;-64
2022/03/03 10:31:06;;;;;;;11.63;6.47;;;14.90;46.40;15.70;100944.00;;;;4955745;28;88443;-63
2022/03/03 10:33:47;;;;;;;10.53;6.37;;;15.30;46.20;16.10;100954.00;;;;4956577;28;88031;-63
2022/03/03 10:36:23;;;;;;;8.20;5.63;;;15.70;45.50;16.30;100946.00;;;;4955980;28;87874;-63
2022/03/03 10:39:00;;;;;;;14.05;7.20;;;16.00;44.50;16.20;100944.00;;;;4956335;28;87894;-65
2022/03/03 10:41:43;;;;;;;11.55;6.70;;;16.00;43.00;16.00;100953.00;;;;4954349;28;88829;-65